createdAt,value
2024-01-11T00:03:11.205Z,64387.91
2024-01-11T00:08:16.883Z,64252.50
2024-01-11T00:13:20.929Z,64346.53
2024-01-11T00:18:25.191Z,64293.47
2024-01-11T00:23:30.736Z,64357.72
2024-01-11T00:28:34.865Z,64479.69
2024-01-11T00:33:39.125Z,64413.38
2024-01-11T00:38:44.940Z,64478.22
2024-01-11T00:43:49.257Z,64554.22
2024-01-11T00:48:56.462Z,64571.66
2024-01-11T00:54:02.564Z,64508.25
2024-01-11T00:59:06.559Z,64453.28
2024-01-11T01:04:10.753Z,64390.44
2024-01-11T01:09:16.572Z,64491.31
2024-01-11T01:14:20.697Z,64481.28
2024-01-11T01:19:24.752Z,64327.09
2024-01-11T01:24:30.267Z,64283.47
2024-01-11T01:29:34.435Z,64278.19
2024-01-11T01:34:38.485Z,64326.84
2024-01-11T01:39:44.062Z,64388.34
2024-01-11T01:44:49.488Z,64498.19
2024-01-11T01:49:53.755Z,64483.81
2024-01-11T01:55:01.099Z,64472.31
2024-01-11T02:00:07.421Z,64546.19
2024-01-11T02:05:16.892Z,64541.53
2024-01-11T02:10:23.284Z,64457.63
2024-01-11T02:15:27.510Z,64404.16
2024-01-11T02:20:31.698Z,64453.94
2024-01-11T02:25:37.347Z,64537.44
2024-01-11T02:30:41.627Z,64558.44
2024-01-11T02:35:48.020Z,64437.56
2024-01-11T02:40:54.253Z,64532.25
2024-01-11T02:45:59.753Z,64439.25
2024-01-11T02:51:03.721Z,64397.84
2024-01-11T02:56:09.687Z,64453.41
2024-01-11T03:01:14.013Z,64433.34
2024-01-11T03:06:22.763Z,64427.00
2024-01-11T03:11:28.875Z,64488.69
2024-01-11T03:16:33.169Z,64590.69
2024-01-11T03:21:37.324Z,64530.03
2024-01-11T03:26:43.684Z,64399.53
2024-01-11T03:31:47.919Z,64486.44
2024-01-11T03:36:52.210Z,64436.38
2024-01-11T03:41:58.191Z,64529.91
2024-01-11T03:47:02.369Z,64547.66
2024-01-11T03:52:07.568Z,64482.34
2024-01-11T03:57:13.208Z,64463.44
2024-01-11T04:02:17.757Z,64442.31
2024-01-11T04:07:21.906Z,64544.94
2024-01-11T04:12:27.461Z,64611.31
2024-01-11T04:17:31.947Z,64620.72
2024-01-11T04:22:36.172Z,64586.47
2024-01-11T04:27:42.084Z,64655.75
2024-01-11T04:32:46.603Z,64560.97
2024-01-11T04:37:50.852Z,64599.91
2024-01-11T04:42:56.370Z,64630.38
2024-01-11T04:48:00.391Z,64563.97
2024-01-11T04:53:04.445Z,64596.50
2024-01-11T04:58:09.748Z,64594.41
2024-01-11T05:03:13.694Z,64658.13
2024-01-11T05:08:17.766Z,64642.53
2024-01-11T05:13:23.088Z,64705.00
2024-01-11T05:18:27.319Z,64594.94
2024-01-11T05:23:31.459Z,64649.41
2024-01-11T05:28:36.654Z,64669.13
2024-01-11T05:33:41.893Z,64658.19
2024-01-11T05:38:48.003Z,64686.03
2024-01-11T05:43:57.773Z,64745.78
2024-01-11T05:49:05.389Z,64746.94
2024-01-11T05:54:12.610Z,64707.22
2024-01-11T05:59:21.345Z,64752.13
2024-01-11T06:04:28.004Z,64708.41
2024-01-11T06:09:34.769Z,64634.28
2024-01-11T06:14:44.664Z,64584.59
2024-01-11T06:19:51.663Z,64617.13
2024-01-11T06:24:56.527Z,64652.19
2024-01-11T06:30:01.784Z,64676.22
2024-01-11T06:35:06.588Z,64728.53
2024-01-11T06:40:10.737Z,64739.13
2024-01-11T06:45:16.037Z,64722.06
2024-01-11T06:50:38.915Z,64772.47
2024-01-11T06:55:44.231Z,64843.38
2024-01-11T07:00:50.932Z,64809.97
2024-01-11T07:05:55.294Z,64827.38
2024-01-11T07:10:59.389Z,64808.81
2024-01-11T07:16:05.415Z,64876.69
2024-01-11T07:21:09.434Z,64881.44
2024-01-11T07:26:14.916Z,64883.56
2024-01-11T07:31:20.652Z,64906.59
2024-01-11T07:36:24.965Z,64921.97
2024-01-11T07:41:29.363Z,64900.75
2024-01-11T07:46:39.397Z,64888.34
2024-01-11T07:51:50.453Z,64860.47
2024-01-11T07:56:54.599Z,64873.72
2024-01-11T08:02:00.069Z,64890.69
2024-01-11T08:07:04.281Z,64887.81
2024-01-11T08:12:08.591Z,64894.59
2024-01-11T08:17:14.760Z,64899.06
2024-01-11T08:22:19.185Z,64881.00
2024-01-11T08:27:23.359Z,64889.41
2024-01-11T08:32:32.154Z,64874.84
2024-01-11T08:37:36.609Z,64942.53
2024-01-11T08:42:42.490Z,64992.00
2024-01-11T08:47:48.934Z,64960.59
2024-01-11T08:52:53.198Z,65028.09
2024-01-11T08:57:58.012Z,65025.56
2024-01-11T09:03:03.678Z,64981.91
2024-01-11T09:08:09.290Z,64955.59
2024-01-11T09:13:14.874Z,65017.91
2024-01-11T09:18:20.718Z,64981.38
2024-01-11T09:23:24.802Z,64990.31
2024-01-11T09:28:28.785Z,65010.38
2024-01-11T09:33:34.873Z,65014.41
2024-01-11T09:38:39.337Z,65064.63
2024-01-11T09:43:44.239Z,65049.34
2024-01-11T09:48:51.476Z,65025.34
2024-01-11T09:53:57.338Z,65012.38
2024-01-11T09:59:01.246Z,65013.66
2024-01-11T10:04:07.076Z,64955.28
2024-01-11T10:09:11.273Z,64936.06
2024-01-11T10:14:15.281Z,64940.53
2024-01-11T10:19:22.906Z,65005.16
2024-01-11T10:24:28.398Z,64969.94
2024-01-11T10:29:32.970Z,64985.66
2024-01-11T10:34:41.341Z,64930.88
2024-01-11T10:39:45.692Z,64901.69
2024-01-11T10:44:52.173Z,64936.63
2024-01-11T10:49:59.631Z,64941.91
2024-01-11T10:55:04.440Z,64896.31
2024-01-11T11:00:13.159Z,64947.63
2024-01-11T11:05:20.781Z,64914.44
2024-01-11T11:10:24.910Z,64912.84
2024-01-11T11:15:29.559Z,64935.75
2024-01-11T11:20:35.745Z,64891.22
2024-01-11T11:25:40.592Z,64951.66
2024-01-11T11:30:45.815Z,64909.44
2024-01-11T11:35:54.367Z,64929.81
2024-01-11T11:40:59.153Z,64852.81
2024-01-11T11:46:08.946Z,64847.72
2024-01-11T11:51:17.494Z,64867.13
2024-01-11T11:56:24.751Z,64917.50
2024-01-11T12:01:29.045Z,64846.13
2024-01-11T12:06:34.976Z,64849.72
2024-01-11T12:11:39.010Z,64830.25
2024-01-11T12:16:43.019Z,64799.81
2024-01-11T12:21:48.323Z,64897.16
2024-01-11T12:26:53.505Z,64885.28
2024-01-11T12:31:59.985Z,64936.81
2024-01-11T12:37:07.680Z,64905.94
2024-01-11T12:42:12.115Z,64839.66
2024-01-11T12:47:16.021Z,64895.97
2024-01-11T12:52:21.800Z,64832.78
2024-01-11T12:57:26.214Z,64857.78
2024-01-11T13:02:30.354Z,64886.84
2024-01-11T13:07:35.894Z,64858.13
2024-01-11T13:12:39.881Z,64863.94
2024-01-11T13:17:44.154Z,64885.78
2024-01-11T13:22:49.667Z,64886.75
2024-01-11T13:27:54.450Z,64904.69
2024-01-11T13:32:58.708Z,64837.44
2024-01-11T13:38:04.334Z,64854.63
2024-01-11T13:43:08.593Z,64828.00
2024-01-11T13:48:13.075Z,64793.47
2024-01-11T13:53:18.848Z,64816.97
2024-01-11T13:58:24.764Z,64871.91
2024-01-11T14:03:31.454Z,64859.28
2024-01-11T14:08:38.136Z,64784.31
2024-01-11T14:13:42.121Z,64782.88
2024-01-11T14:18:46.229Z,64813.59
2024-01-11T14:23:52.688Z,64818.47
2024-01-11T14:28:57.150Z,64818.47
2024-01-11T14:34:01.636Z,64690.72
2024-01-11T14:39:07.229Z,64721.53
2024-01-11T14:44:12.110Z,64711.88
2024-01-11T14:49:16.125Z,64718.22
2024-01-11T14:54:21.616Z,64738.34
2024-01-11T14:59:26.353Z,64679.19
2024-01-11T15:04:30.650Z,64700.22
2024-01-11T15:09:38.290Z,64749.06
2024-01-11T15:14:43.992Z,64713.16
2024-01-11T15:19:49.084Z,64652.72
2024-01-11T15:24:55.112Z,64647.28
2024-01-11T15:29:59.217Z,64621.91
2024-01-11T15:35:05.006Z,64644.34
2024-01-11T15:40:12.015Z,64660.00
2024-01-11T15:45:16.195Z,64636.94
2024-01-11T15:50:20.493Z,64640.00
2024-01-11T15:55:26.796Z,64665.28
2024-01-11T16:00:32.014Z,64685.94
2024-01-11T16:05:41.316Z,64709.34
2024-01-11T16:10:47.167Z,64642.00
2024-01-11T16:15:57.007Z,64696.63
2024-01-11T16:21:01.500Z,64680.97
2024-01-11T16:26:08.580Z,64719.81
2024-01-11T16:31:13.064Z,64693.56
2024-01-11T16:36:17.709Z,64667.41
2024-01-11T16:41:26.025Z,64695.16
2024-01-11T16:46:30.279Z,64688.19
2024-01-11T16:51:34.883Z,64681.28
2024-01-11T16:56:40.611Z,64672.41
2024-01-11T17:01:46.447Z,64670.81
2024-01-11T17:06:50.876Z,64727.75
2024-01-11T17:11:56.887Z,64741.53
2024-01-11T17:17:04.815Z,64725.22
2024-01-11T17:22:09.200Z,64674.28
2024-01-11T17:27:16.172Z,64716.13
2024-01-11T17:32:20.829Z,64664.47
2024-01-11T17:37:26.743Z,64691.13
2024-01-11T17:42:33.426Z,64675.34
2024-01-11T17:47:37.933Z,64715.59
2024-01-11T17:52:43.506Z,64684.34
2024-01-11T17:57:49.612Z,64699.16
2024-01-11T18:02:54.025Z,64689.09
2024-01-11T18:07:59.005Z,64688.56
2024-01-11T18:13:04.715Z,64782.56
2024-01-11T18:18:09.873Z,64758.72
2024-01-11T18:23:14.044Z,64730.94
2024-01-11T18:28:19.607Z,64679.06
2024-01-11T18:33:26.048Z,64670.72
2024-01-11T18:38:31.958Z,64752.78
2024-01-11T18:43:38.924Z,64780.31
2024-01-11T18:48:44.022Z,64722.47
2024-01-11T18:53:48.142Z,64760.06
2024-01-11T18:58:53.601Z,64705.09
2024-01-11T19:03:57.681Z,64723.22
2024-01-11T19:09:02.038Z,64780.84
2024-01-11T19:14:10.227Z,64767.50
2024-01-11T19:19:14.466Z,64728.94
2024-01-11T19:24:18.488Z,64727.22
2024-01-11T19:29:24.970Z,64743.34
2024-01-11T19:34:28.969Z,64818.88
2024-01-11T19:39:33.680Z,64799.69
2024-01-11T19:44:42.978Z,64821.66
2024-01-11T19:49:47.162Z,64817.31
2024-01-11T19:54:51.344Z,64782.22
2024-01-11T19:59:57.026Z,64788.38
2024-01-11T20:05:03.969Z,64802.34
2024-01-11T20:10:08.406Z,64771.94
2024-01-11T20:15:14.522Z,64836.38
2024-01-11T20:20:18.631Z,64844.34
2024-01-11T20:25:22.887Z,64769.72
2024-01-11T20:30:28.170Z,64809.56
2024-01-11T20:35:34.345Z,64836.38
2024-01-11T20:40:38.354Z,64842.31
2024-01-11T20:45:44.833Z,64884.09
2024-01-11T20:50:49.422Z,64839.66
2024-01-11T20:55:54.808Z,64780.31
2024-01-11T21:01:02.442Z,64815.19
2024-01-11T21:06:07.099Z,64807.44
2024-01-11T21:11:12.587Z,64865.13
2024-01-11T21:16:18.127Z,64830.78
2024-01-11T21:21:24.750Z,64881.97
2024-01-11T21:26:29.019Z,64839.03
2024-01-11T21:31:34.618Z,64810.50
2024-01-11T21:36:39.119Z,64837.53
2024-01-11T21:41:43.071Z,64873.72
2024-01-11T21:46:48.383Z,64891.22
2024-01-11T21:51:53.278Z,64906.81
2024-01-11T21:56:59.308Z,64830.47
2024-01-11T22:02:05.150Z,64874.97
2024-01-11T22:07:13.050Z,64896.31
2024-01-11T22:12:19.620Z,64935.00
2024-01-11T22:17:25.626Z,64924.63
2024-01-11T22:22:30.153Z,64962.41
2024-01-11T22:27:34.706Z,64942.13
2024-01-11T22:32:42.634Z,64900.53
2024-01-11T22:37:46.685Z,64930.88
2024-01-11T22:42:50.668Z,64924.53
2024-01-11T22:47:56.004Z,64909.13
2024-01-11T22:53:00.929Z,64961.13
2024-01-11T22:58:05.131Z,64920.69
2024-01-11T23:03:11.955Z,64966.53
2024-01-11T23:08:16.740Z,64889.09
2024-01-11T23:13:20.619Z,64907.44
2024-01-11T23:18:26.725Z,64940.84
2024-01-11T23:23:31.498Z,64939.78
2024-01-11T23:28:35.472Z,64958.38
2024-01-11T23:33:41.315Z,64977.56
2024-01-11T23:38:46.184Z,65006.78
2024-01-11T23:43:50.380Z,64988.09
2024-01-11T23:48:55.990Z,64994.44
2024-01-11T23:54:00.411Z,64933.41
2024-01-11T23:59:04.591Z,64876.34
